Time;durP1;ratioP1;P1;durP2;ratioP2;P2;SDS_P1;SDS_P2;PMS_P1;PMS_P2;Temp;Humidity;BMP_temperature;BMP_pressure;BME280_temperature;BME280_humidity;BME280_pressure;Samples;Min_cycle;Max_cycle;Signal;HPM_P1;HPM_P2
2023/02/20 00:02:15;;;;;;;13.10;8.35;;;8.70;99.90;;;;;;5056337;28;20036;-91
2023/02/20 00:04:41;;;;;;;19.48;8.18;;;9.00;99.90;;;;;;5056421;28;20025;-92
2023/02/20 00:07:06;;;;;;;14.77;8.73;;;8.60;99.90;;;;;;5068979;28;20084;-93
2023/02/20 00:09:32;;;;;;;15.10;8.85;;;8.60;99.90;;;;;;5060116;28;20093;-91
2023/02/20 00:12:00;;;;;;;12.65;8.13;;;8.50;99.90;;;;;;5056418;28;20029;-92
2023/02/20 00:14:26;;;;;;;16.02;8.90;;;7.90;99.90;;;;;;5056214;28;20048;-94
2023/02/20 00:17:01;;;;;;;14.30;8.77;;;8.30;99.90;;;;;;5056203;28;20552;-93
2023/02/20 00:19:27;;;;;;;17.17;8.52;;;8.00;99.90;;;;;;5061001;28;20036;-92
2023/02/20 00:21:53;;;;;;;16.90;8.75;;;8.00;99.90;;;;;;5073981;28;20563;-91
2023/02/20 00:24:19;;;;;;;19.90;9.13;;;8.50;99.90;;;;;;5058839;28;20052;-92
2023/02/20 00:26:46;;;;;;;13.10;8.45;;;8.50;99.90;;;;;;5056145;28;20049;-93
2023/02/20 00:29:17;;;;;;;16.58;9.25;;;8.90;99.90;;;;;;5055817;28;20524;-92
2023/02/20 00:36:46;;;;;;;13.27;7.97;;;7.50;99.90;;;;;;5091527;28;20056;-91
2023/02/20 00:39:12;;;;;;;17.90;9.57;;;8.00;99.90;;;;;;5095366;28;20036;-91
2023/02/20 00:41:41;;;;;;;16.25;9.00;;;8.10;99.90;;;;;;5102852;28;20382;-92
2023/02/20 00:44:12;;;;;;;16.65;9.65;;;7.40;99.90;;;;;;5095478;28;20024;-92
2023/02/20 00:46:38;;;;;;;12.70;8.70;;;7.80;99.90;;;;;;5095407;28;20177;-92
2023/02/20 00:49:06;;;;;;;19.70;9.85;;;7.60;99.90;;;;;;5096316;28;20486;-91
2023/02/20 00:51:35;;;;;;;11.60;9.50;;;7.90;99.90;;;;;;5096356;28;20040;-91
2023/02/20 00:54:06;;;;;;;13.90;9.65;;;7.90;99.90;;;;;;5094080;28;20502;-93
2023/02/20 00:56:37;;;;;;;18.73;10.02;;;7.40;99.90;;;;;;5094828;28;20016;-91
2023/02/20 00:59:05;;;;;;;16.83;9.75;;;7.60;99.90;;;;;;5095044;28;20036;-90
2023/02/20 01:01:37;;;;;;;17.63;10.02;;;6.90;99.90;;;;;;5095199;28;20032;-90
2023/02/20 01:04:06;;;;;;;23.90;10.30;;;8.30;99.90;;;;;;5094959;28;20035;-91
2023/02/20 01:06:37;;;;;;;19.30;10.20;;;7.80;99.90;;;;;;5094760;28;20024;-93
2023/02/20 01:09:09;;;;;;;21.02;11.25;;;7.90;99.90;;;;;;5095252;28;20117;-89
2023/02/20 01:11:39;;;;;;;19.20;10.70;;;7.80;99.90;;;;;;5095016;28;20024;-91
2023/02/20 01:14:16;;;;;;;18.73;11.02;;;7.70;99.90;;;;;;5094396;28;20063;-93
2023/02/20 01:16:52;;;;;;;20.67;10.98;;;7.20;99.90;;;;;;5094716;28;20032;-92
2023/02/20 01:19:22;;;;;;;16.75;10.65;;;7.40;99.90;;;;;;5094360;28;20525;-91
2023/02/20 01:21:53;;;;;;;25.00;11.52;;;6.80;99.90;;;;;;5094408;28;20074;-91
2023/02/20 01:24:22;;;;;;;22.55;12.10;;;7.70;99.90;;;;;;5094380;28;20042;-92
2023/02/20 01:26:48;;;;;;;27.05;12.10;;;8.70;99.90;;;;;;5095016;28;20363;-91
2023/02/20 01:29:19;;;;;;;21.77;12.35;;;8.10;99.90;;;;;;5094519;28;20478;-92
2023/02/20 01:31:49;;;;;;;23.15;12.65;;;7.70;99.90;;;;;;5095009;28;20028;-92
2023/02/20 01:34:16;;;;;;;23.65;12.73;;;7.70;99.90;;;;;;5094417;28;20016;-91
2023/02/20 01:36:52;;;;;;;31.90;12.85;;;7.30;99.90;;;;;;5094282;28;20056;-93
2023/02/20 01:39:23;;;;;;;33.08;13.52;;;8.10;99.90;;;;;;5094114;28;20482;-91
2023/02/20 01:42:23;;;;;;;27.00;12.95;;;7.80;99.90;;;;;;5094517;28;20107;-90
2023/02/20 01:44:52;;;;;;;33.33;14.88;;;7.30;99.90;;;;;;5094552;28;20047;-91
2023/02/20 01:47:23;;;;;;;30.15;15.48;;;7.50;99.90;;;;;;5094210;28;20028;-92
2023/02/20 01:50:02;;;;;;;36.13;16.05;;;8.00;99.90;;;;;;5094267;28;20038;-91
2023/02/20 01:52:33;;;;;;;32.35;16.70;;;8.00;99.90;;;;;;5094005;28;20031;-91
2023/02/20 01:55:04;;;;;;;;;;;8.20;99.90;;;;;;5095992;28;20093;-92
2023/02/20 01:57:34;;;;;;;39.22;17.05;;;7.10;99.90;;;;;;5093381;28;19912;-92
2023/02/20 02:00:10;;;;;;;43.38;18.67;;;7.80;99.90;;;;;;5090302;22;20420;-92
2023/02/20 02:02:47;;;;;;;46.10;19.15;;;7.50;99.90;;;;;;5093243;22;20048;31
2023/02/20 02:05:13;;;;;;;41.45;20.13;;;8.20;99.90;;;;;;5061545;22;20037;-93
2023/02/20 02:10:13;;;;;;;46.75;19.85;;;7.60;99.90;;;;;;5079107;22;20052;-92
2023/02/20 02:15:15;;;;;;;41.60;19.77;;;7.60;99.90;;;;;;5086350;22;20125;-92
2023/02/20 02:26:43;;;;;;;42.67;21.73;;;7.70;99.90;;;;;;5094153;22;20026;-92
2023/02/20 02:32:46;;;;;;;35.78;21.25;;;7.70;99.90;;;;;;5098296;22;20066;-91
2023/02/20 02:47:26;;;;;;;47.83;23.02;;;7.70;99.90;;;;;;5099477;22;20069;-91
2023/02/20 02:49:52;;;;;;;42.50;21.95;;;8.40;99.90;;;;;;5099959;22;20055;-89
2023/02/20 02:55:26;;;;;;;50.67;21.85;;;8.20;99.90;;;;;;5118518;22;20102;-90
2023/02/20 02:57:52;;;;;;;41.13;20.80;;;8.00;99.90;;;;;;5093576;22;20056;-90
2023/02/20 03:00:28;;;;;;;44.97;20.65;;;7.60;99.90;;;;;;5083942;22;20622;-89
2023/02/20 03:03:20;;;;;;;39.17;22.67;;;7.70;99.90;;;;;;5089951;22;20054;-90
2023/02/20 03:05:54;;;;;;;48.42;20.55;;;7.70;99.90;;;;;;5054805;28;20052;-89
2023/02/20 03:08:56;;;;;;;43.95;20.30;;;8.20;99.90;;;;;;5056529;28;20052;-89
2023/02/20 03:11:23;;;;;;;43.75;22.92;;;7.70;99.90;;;;;;5056718;28;20021;-90
2023/02/20 03:17:04;;;;;;;50.72;24.48;;;7.70;99.90;;;;;;5101205;22;20059;-90
2023/02/20 03:19:57;;;;;;;38.50;21.55;;;7.70;99.90;;;;;;5076992;28;20040;-90
2023/02/20 03:22:44;;;;;;;47.13;22.38;;;7.70;99.90;;;;;;5076414;28;20027;-91
2023/02/20 03:25:20;;;;;;;37.90;23.15;;;8.00;99.90;;;;;;5076802;28;20024;-90
2023/02/20 03:28:17;;;;;;;52.42;23.67;;;7.70;99.90;;;;;;5076813;28;20028;-91
2023/02/20 03:31:16;;;;;;;48.45;23.00;;;7.70;99.90;;;;;;5076525;28;20443;-89
2023/02/20 03:46:21;;;;;;;42.38;24.33;;;7.40;99.90;;;;;;5076592;28;20130;-91
2023/02/20 03:48:57;;;;;;;50.75;25.85;;;8.00;99.90;;;;;;5076645;28;20070;-89
2023/02/20 03:51:23;;;;;;;49.95;25.13;;;7.80;99.90;;;;;;5076307;28;20016;-90
2023/02/20 03:53:50;;;;;;;46.42;25.52;;;7.60;99.90;;;;;;5076481;28;20361;-90
2023/02/20 03:56:26;;;;;;;55.10;26.23;;;7.90;99.90;;;;;;5076012;28;20111;-91
2023/02/20 03:59:18;;;;;;;51.50;26.60;;;8.20;99.90;;;;;;5076202;28;20033;-90
2023/02/20 04:01:54;;;;;;;62.97;27.70;;;6.90;99.90;;;;;;5076167;28;20506;-91
2023/02/20 04:04:30;;;;;;;55.08;28.05;;;8.40;99.90;;;;;;5076065;28;20108;-91
2023/02/20 04:06:57;;;;;;;61.83;28.83;;;8.30;99.90;;;;;;5076212;28;20029;-91
2023/02/20 04:09:27;;;;;;;61.67;27.83;;;8.50;99.90;;;;;;5075992;28;20056;-90
2023/02/20 04:12:23;;;;;;;57.40;26.65;;;8.90;99.90;;;;;;5077956;28;20421;-90
2023/02/20 04:14:54;;;;;;;56.63;28.25;;;7.80;99.90;;;;;;5075974;28;20115;-90
2023/02/20 04:17:31;;;;;;;55.42;26.75;;;7.50;99.90;;;;;;5079432;28;20063;-90
2023/02/20 04:19:57;;;;;;;53.88;28.58;;;8.40;99.90;;;;;;5076002;28;20028;-89
2023/02/20 04:22:33;;;;;;;49.15;26.10;;;8.50;99.90;;;;;;5075666;28;20352;-90
2023/02/20 04:25:05;;;;;;;47.58;26.23;;;8.20;99.90;;;;;;5075595;28;20055;-90
2023/02/20 04:27:33;;;;;;;52.40;26.42;;;7.50;99.90;;;;;;5075400;28;20031;-90
2023/02/20 04:30:02;;;;;;;58.17;26.70;;;8.30;99.90;;;;;;5075842;28;20031;-89
2023/02/20 04:32:49;;;;;;;43.25;24.33;;;8.00;99.90;;;;;;5081893;22;20147;-91
2023/02/20 04:35:19;;;;;;;51.47;24.88;;;8.50;99.90;;;;;;5075255;28;20059;-90
2023/02/20 04:37:50;;;;;;;50.00;24.40;;;7.90;99.90;;;;;;5075276;28;20056;-89
2023/02/20 04:40:22;;;;;;;45.10;23.98;;;8.90;99.90;;;;;;5075295;28;20043;-89
2023/02/20 04:42:50;;;;;;;52.20;24.75;;;8.00;99.90;;;;;;5075507;28;20028;-91
2023/02/20 04:45:21;;;;;;;43.75;23.00;;;8.10;99.90;;;;;;5075080;28;20464;-90
2023/02/20 04:47:59;;;;;;;49.60;22.55;;;8.40;99.90;;;;;;5074395;28;20028;-90
2023/02/20 04:50:29;;;;;;;44.95;20.88;;;8.50;99.90;;;;;;5074604;28;20051;-89
2023/02/20 04:53:03;;;;;;;52.97;21.50;;;8.10;99.90;;;;;;5074742;28;20025;-90
2023/02/20 04:55:35;;;;;;;42.45;18.92;;;8.50;99.90;;;;;;5074671;28;20299;-90
2023/02/20 04:58:04;;;;;;;36.80;17.60;;;8.00;99.90;;;;;;5074888;28;20356;-90
2023/02/20 05:00:30;;;;;;;44.42;17.67;;;8.70;99.90;;;;;;5074704;28;20029;-90
2023/02/20 05:02:58;;;;;;;38.33;16.38;;;8.50;99.90;;;;;;5074987;28;20024;-90
2023/02/20 05:05:30;;;;;;;38.25;16.08;;;9.00;99.90;;;;;;5074476;28;20486;-89
2023/02/20 05:11:01;;;;;;;39.45;15.98;;;8.10;99.90;;;;;;5089334;22;20135;-90
2023/02/20 05:13:30;;;;;;;33.33;14.57;;;9.30;99.90;;;;;;5081884;22;20048;-90
2023/02/20 05:16:04;;;;;;;35.65;14.35;;;8.00;99.90;;;;;;5074832;28;20467;-90
2023/02/20 05:18:32;;;;;;;34.88;13.90;;;7.70;99.90;;;;;;5074742;28;20040;-90
2023/02/20 05:24:07;;;;;;;37.25;13.98;;;8.10;99.90;;;;;;5074464;28;20035;-89
2023/02/20 05:26:44;;;;;;;25.98;11.98;;;8.10;99.90;;;;;;5073860;28;20032;-89
2023/02/20 05:29:11;;;;;;;31.38;12.57;;;8.80;99.90;;;;;;5073888;28;20545;-90
2023/02/20 05:31:49;;;;;;;31.05;11.48;;;8.60;99.90;;;;;;5073937;28;20472;-90
2023/02/20 05:34:24;;;;;;;27.63;12.23;;;8.60;99.90;;;;;;5073451;28;20035;-90
2023/02/20 05:36:53;;;;;;;34.42;12.00;;;8.60;99.90;;;;;;5074148;28;20016;-88
2023/02/20 05:39:20;;;;;;;41.75;13.68;;;8.80;99.90;;;;;;5073867;28;20033;-91
2023/02/20 05:41:52;;;;;;;31.10;12.43;;;8.60;99.90;;;;;;5074197;28;20036;-90
2023/02/20 05:44:22;;;;;;;30.77;11.07;;;7.90;99.90;;;;;;5073941;28;20025;-90
2023/02/20 05:46:53;;;;;;;35.90;12.35;;;8.10;99.90;;;;;;5074187;28;20024;-91
2023/02/20 05:49:22;;;;;;;44.22;13.20;;;8.50;99.90;;;;;;5073752;28;20025;-91
2023/02/20 05:51:54;;;;;;;32.38;12.02;;;8.50;99.90;;;;;;5074183;28;20035;-89
2023/02/20 05:54:20;;;;;;;36.38;12.27;;;8.00;99.90;;;;;;5073917;28;20028;-90
2023/02/20 05:56:49;;;;;;;36.85;12.25;;;8.60;99.90;;;;;;5074258;28;20028;-92
2023/02/20 05:59:20;;;;;;;45.58;12.48;;;8.20;99.90;;;;;;5077500;28;20036;-89
2023/02/20 06:01:54;;;;;;;35.33;12.65;;;8.10;99.90;;;;;;5075175;28;20088;-89
2023/02/20 06:04:20;;;;;;;37.97;11.57;;;8.60;99.90;;;;;;5077750;28;20113;-90
2023/02/20 06:06:48;;;;;;;33.75;11.90;;;8.50;99.90;;;;;;5073718;28;20062;-89
2023/02/20 06:09:20;;;;;;;30.38;10.57;;;8.60;99.90;;;;;;5074392;28;20036;-93
2023/02/20 06:11:52;;;;;;;24.63;10.35;;;8.60;99.90;;;;;;5073456;28;20052;-90
2023/02/20 06:14:23;;;;;;;32.75;10.27;;;8.20;99.90;;;;;;5073599;28;20020;-90
2023/02/20 06:16:51;;;;;;;28.27;9.90;;;8.70;99.90;;;;;;5074540;28;20029;-89
2023/02/20 06:19:24;;;;;;;25.40;9.02;;;8.40;99.90;;;;;;5073528;28;20035;-89
2023/02/20 06:21:54;;;;;;;37.10;10.10;;;8.50;99.90;;;;;;5073412;28;20020;-89
2023/02/20 06:24:25;;;;;;;25.77;9.18;;;8.30;99.90;;;;;;5073219;28;20119;-89
2023/02/20 06:26:54;;;;;;;21.63;8.82;;;8.80;99.90;;;;;;5073383;28;20035;-90
2023/02/20 06:29:20;;;;;;;28.95;8.95;;;8.40;99.90;;;;;;5073505;28;20536;-89
2023/02/20 06:31:46;;;;;;;33.03;9.63;;;8.00;99.90;;;;;;5081561;22;20107;-89
2023/02/20 06:34:12;;;;;;;35.72;9.40;;;8.30;99.90;;;;;;5052256;28;20156;-89
2023/02/20 06:36:41;;;;;;;26.08;9.43;;;8.40;99.90;;;;;;5053212;28;20045;-89
2023/02/20 06:39:08;;;;;;;30.77;9.10;;;8.10;99.90;;;;;;5053458;28;20029;-90
2023/02/20 06:41:44;;;;;;;33.92;10.32;;;7.80;99.90;;;;;;5077524;22;20048;-89
2023/02/20 06:44:15;;;;;;;44.30;11.93;;;8.90;99.90;;;;;;5082586;28;20033;-90
2023/02/20 06:46:46;;;;;;;36.67;10.82;;;7.90;99.90;;;;;;5096681;22;20052;-90
2023/02/20 06:49:21;;;;;;;26.88;9.18;;;8.70;99.90;;;;;;5078724;22;20049;-91
2023/02/20 06:51:52;;;;;;;27.63;10.63;;;8.00;99.90;;;;;;5068829;28;20027;-90
2023/02/20 06:54:23;;;;;;;36.05;9.55;;;8.10;99.90;;;;;;5072075;28;20020;-90
2023/02/20 06:57:04;;;;;;;28.85;10.32;;;8.50;99.90;;;;;;5063734;28;20459;-91
2023/02/20 06:59:30;;;;;;;35.85;9.85;;;8.50;99.90;;;;;;5069443;28;20115;-90
2023/02/20 07:02:26;;;;;;;31.85;10.75;;;8.50;99.90;;;;;;5072693;28;20029;-90
2023/02/20 07:04:57;;;;;;;34.70;9.73;;;8.00;99.90;;;;;;5066448;28;20024;-92
2023/02/20 07:07:23;;;;;;;42.33;11.02;;;8.50;99.90;;;;;;5072053;28;20524;-92
2023/02/20 07:09:58;;;;;;;30.35;10.07;;;8.90;99.90;;;;;;5061339;28;20033;-92
2023/02/20 07:12:24;;;;;;;40.90;9.77;;;7.90;99.90;;;;;;5027377;22;1145962;-91
2023/02/20 07:14:53;;;;;;;46.75;10.20;;;8.50;99.90;;;;;;5098226;22;20832;-90
2023/02/20 07:17:28;;;;;;;36.42;10.25;;;8.50;99.90;;;;;;5075064;28;20075;-89
2023/02/20 07:19:58;;;;;;;27.35;9.65;;;8.90;99.90;;;;;;5084258;28;20047;-92
2023/02/20 07:22:32;;;;;;;30.83;9.03;;;8.00;99.90;;;;;;5077351;28;20029;-90
2023/02/20 07:24:58;;;;;;;42.00;10.43;;;8.10;99.90;;;;;;5078137;28;20028;-90
2023/02/20 07:27:36;;;;;;;31.42;9.30;;;8.80;99.90;;;;;;5076627;28;20773;-91
2023/02/20 07:30:14;;;;;;;45.75;12.02;;;8.60;99.90;;;;;;5077434;28;20062;-90
2023/02/20 07:32:40;;;;;;;31.38;8.27;;;8.40;99.90;;;;;;5077988;28;20021;-90
2023/02/20 07:35:11;;;;;;;29.00;9.02;;;8.20;99.90;;;;;;5076983;28;20124;-89
2023/02/20 07:37:40;;;;;;;29.30;7.70;;;8.60;99.90;;;;;;5077506;28;20025;-90
2023/02/20 07:40:12;;;;;;;41.15;9.27;;;8.70;99.90;;;;;;5078585;28;20078;-90
2023/02/20 07:42:38;;;;;;;23.85;8.77;;;8.40;99.90;;;;;;5097036;28;20024;-89
2023/02/20 07:45:10;;;;;;;30.33;9.52;;;8.60;99.90;;;;;;5101575;28;20027;-90
2023/02/20 07:47:39;;;;;;;36.60;9.63;;;7.90;99.90;;;;;;5097247;28;20017;-90
2023/02/20 07:50:11;;;;;;;31.48;10.20;;;8.80;99.90;;;;;;5100269;28;20016;-89
2023/02/20 07:52:39;;;;;;;22.35;8.93;;;8.10;99.90;;;;;;5096513;28;20048;-89
2023/02/20 07:55:18;;;;;;;32.90;10.10;;;8.80;99.90;;;;;;5096359;28;20043;-91
2023/02/20 07:57:46;;;;;;;29.98;10.05;;;7.70;99.90;;;;;;5091636;28;20056;-90
2023/02/20 08:00:17;;;;;;;21.65;9.10;;;9.50;99.90;;;;;;5077470;28;20269;-93
2023/02/20 08:02:52;;;;;;;;;;;7.30;99.90;;;;;;5077979;28;20089;-91
2023/02/20 08:05:21;;;;;;;34.90;9.70;;;7.80;99.90;;;;;;5072494;28;19908;-92
2023/02/20 08:07:56;;;;;;;23.95;9.65;;;8.60;99.90;;;;;;5075977;28;20021;-92
2023/02/20 08:13:56;;;;;;;27.45;10.30;;;8.20;99.90;;;;;;4941277;29;20036;-91
2023/02/20 08:16:28;;;;;;;26.85;9.75;;;8.10;99.90;;;;;;4955315;28;20514;-90
2023/02/20 08:18:58;;;;;;;33.35;9.95;;;7.60;99.90;;;;;;4955689;28;20182;-91
2023/02/20 08:21:30;;;;;;;39.92;10.93;;;8.60;99.90;;;;;;4945937;29;20031;-92
2023/02/20 08:24:00;;;;;;;34.97;10.55;;;8.60;99.90;;;;;;4949335;28;20566;-94
2023/02/20 08:27:27;;;;;;;33.95;10.65;;;8.80;99.90;;;;;;4938527;29;20514;-92
2023/02/20 08:29:53;;;;;;;33.67;10.45;;;8.20;99.90;;;;;;4907548;28;20050;-94
2023/02/20 08:32:25;;;;;;;34.08;9.82;;;8.70;99.90;;;;;;4978312;28;20034;-91
2023/02/20 08:34:56;;;;;;;32.60;10.40;;;9.20;99.90;;;;;;5033680;28;20532;-91
2023/02/20 08:37:34;;;;;;;33.60;10.85;;;8.20;99.90;;;;;;5049149;28;20029;-90
2023/02/20 08:40:12;;;;;;;33.25;11.32;;;8.90;99.90;;;;;;5065257;28;20029;-92
2023/02/20 08:42:39;;;;;;;29.05;10.10;;;9.00;99.90;;;;;;5075298;22;20041;-88
2023/02/20 08:45:08;;;;;;;30.38;10.25;;;8.80;99.90;;;;;;5093164;28;20050;-90
2023/02/20 08:47:37;;;;;;;29.53;10.43;;;8.20;99.90;;;;;;5094078;28;20028;-88
2023/02/20 08:50:09;;;;;;;34.53;10.85;;;8.90;99.90;;;;;;5093935;28;20270;-88
2023/02/20 08:52:45;;;;;;;27.73;10.35;;;8.30;99.90;;;;;;5093133;28;20028;-89
2023/02/20 08:55:12;;;;;;;32.80;11.80;;;9.00;99.90;;;;;;5094099;28;20024;-88
2023/02/20 08:57:41;;;;;;;37.70;10.98;;;8.70;99.90;;;;;;5094196;28;20028;-91
2023/02/20 09:00:14;;;;;;;36.67;11.32;;;9.20;99.90;;;;;;5094008;28;20028;-89
2023/02/20 09:02:47;;;;;;;39.85;10.57;;;8.30;99.90;;;;;;5094810;28;20019;-90
2023/02/20 09:05:21;;;;;;;34.88;10.77;;;8.80;99.90;;;;;;5087022;28;20028;-90
2023/02/20 09:07:52;;;;;;;37.47;9.57;;;8.20;99.90;;;;;;5081198;28;20026;-90
2023/02/20 09:10:23;;;;;;;27.08;9.90;;;8.20;99.90;;;;;;5079744;28;20021;-89
2023/02/20 09:12:55;;;;;;;29.95;10.85;;;8.90;99.90;;;;;;5083528;28;20383;-89
2023/02/20 09:15:24;;;;;;;41.35;11.93;;;8.60;99.90;;;;;;5081862;28;20111;-88
2023/02/20 09:17:58;;;;;;;40.95;12.35;;;8.90;99.90;;;;;;5090065;28;20028;-88
2023/02/20 09:22:59;;;;;;;31.98;11.57;;;8.40;99.90;;;;;;5057416;22;20412;-89
2023/02/20 09:25:27;;;;;;;23.85;10.13;;;8.90;99.90;;;;;;5051020;28;20027;-88
2023/02/20 09:28:07;;;;;;;32.75;11.43;;;8.90;99.90;;;;;;5044261;28;20025;-89
2023/02/20 09:30:38;;;;;;;26.55;10.45;;;8.50;99.90;;;;;;5040281;28;20025;-89
2023/02/20 09:33:23;;;;;;;31.67;12.15;;;9.50;99.90;;;;;;5053656;28;20021;-91
2023/02/20 09:35:56;;;;;;;31.20;11.30;;;8.70;99.90;;;;;;5077899;28;20422;-91
2023/02/20 09:38:25;;;;;;;29.92;11.20;;;9.00;99.90;;;;;;5081196;22;20091;-91
2023/02/20 09:41:03;;;;;;;25.52;10.38;;;8.60;99.90;;;;;;5064360;22;20049;-91
2023/02/20 09:43:41;;;;;;;38.33;11.73;;;8.40;99.90;;;;;;5034606;28;20109;-91
2023/02/20 09:46:31;;;;;;;29.33;11.40;;;8.80;99.90;;;;;;5038197;28;20040;-91
2023/02/20 09:52:09;;;;;;;34.70;11.45;;;8.90;99.90;;;;;;5018615;28;20568;-90
2023/02/20 09:55:11;;;;;;;28.10;12.50;;;8.40;99.90;;;;;;5033885;28;20028;-90
2023/02/20 09:57:39;;;;;;;28.25;10.98;;;8.60;99.90;;;;;;5034441;28;20129;-89
2023/02/20 10:00:40;;;;;;;25.73;10.85;;;8.50;99.90;;;;;;5031338;28;20025;-88
2023/02/20 10:03:10;;;;;;;26.30;11.95;;;8.50;99.90;;;;;;5028649;28;20034;-89
2023/02/20 10:05:39;;;;;;;21.27;10.98;;;8.70;99.90;;;;;;5033643;28;20025;-90
2023/02/20 10:08:16;;;;;;;26.15;10.95;;;8.80;99.90;;;;;;5029758;28;20033;-89
2023/02/20 10:10:42;;;;;;;28.08;10.70;;;8.00;99.90;;;;;;5025655;28;20446;-91
2023/02/20 10:13:51;;;;;;;23.52;11.38;;;9.10;99.90;;;;;;5027960;28;20104;-89
2023/02/20 10:16:25;;;;;;;20.27;10.98;;;8.60;99.90;;;;;;5029564;28;20068;-89
2023/02/20 10:19:28;;;;;;;25.58;11.82;;;8.60;99.90;;;;;;5031431;28;20551;-89
2023/02/20 10:22:31;;;;;;;23.80;9.98;;;8.30;99.90;;;;;;5035445;28;20025;-89
2023/02/20 10:25:30;;;;;;;23.10;10.98;;;8.60;99.90;;;;;;5036651;28;20029;-91
2023/02/20 10:28:46;;;;;;;17.92;9.95;;;8.60;99.90;;;;;;5025516;28;20022;-94
2023/02/20 10:35:00;;;;;;;19.08;10.27;;;9.00;99.90;;;;;;5042258;28;20032;-90
2023/02/20 10:37:34;;;;;;;22.95;10.55;;;8.60;99.90;;;;;;5029175;28;20029;-87
2023/02/20 10:40:29;;;;;;;23.80;10.30;;;8.60;99.90;;;;;;5037396;28;20091;-91
2023/02/20 10:43:09;;;;;;;17.88;8.85;;;8.70;99.90;;;;;;5053858;28;20468;-91
2023/02/20 10:46:23;;;;;;;17.15;9.73;;;8.60;99.90;;;;;;5053853;28;20021;-90
2023/02/20 10:48:54;;;;;;;17.10;8.93;;;8.70;99.90;;;;;;5054900;28;20143;-88
2023/02/20 10:51:26;;;;;;;20.80;8.55;;;8.40;99.90;;;;;;5055984;28;20043;-89
2023/02/20 10:54:06;;;;;;;17.83;8.02;;;8.90;99.90;;;;;;5057873;28;20159;-90
2023/02/20 10:56:32;;;;;;;20.45;8.40;;;8.60;99.90;;;;;;5046009;28;20057;-89
2023/02/20 10:59:09;;;;;;;15.25;8.15;;;9.40;99.90;;;;;;5057334;28;20101;-89
2023/02/20 11:01:38;;;;;;;17.77;8.05;;;8.80;99.90;;;;;;5056384;28;20021;-90
2023/02/20 11:04:41;;;;;;;13.15;7.22;;;9.30;99.90;;;;;;5057093;28;20028;-91
2023/02/20 11:07:10;;;;;;;15.35;7.55;;;9.10;99.90;;;;;;5035594;28;20032;-89
2023/02/20 11:09:36;;;;;;;15.87;7.80;;;9.50;99.90;;;;;;5054097;28;20088;-90
2023/02/20 11:12:19;;;;;;;10.73;6.55;;;8.50;99.90;;;;;;5050302;28;20106;-90
2023/02/20 11:14:47;;;;;;;9.05;6.13;;;8.70;99.90;;;;;;5045544;28;20017;-89
2023/02/20 11:17:14;;;;;;;14.13;7.50;;;9.50;99.90;;;;;;5049905;28;20017;-92
2023/02/20 11:20:05;;;;;;;12.95;6.25;;;8.60;99.90;;;;;;5062197;28;20037;-91
2023/02/20 11:22:46;;;;;;;14.35;5.80;;;8.80;99.90;;;;;;5059175;28;20043;-91
2023/02/20 11:25:40;;;;;;;15.80;6.18;;;8.80;99.90;;;;;;5050788;28;20087;-92
2023/02/20 11:28:06;;;;;;;15.15;5.53;;;8.90;99.90;;;;;;5048316;28;20044;-91
2023/02/20 11:30:42;;;;;;;10.13;5.22;;;9.10;99.90;;;;;;5054978;28;20468;-91
2023/02/20 11:33:21;;;;;;;14.13;5.47;;;9.30;99.90;;;;;;5056584;28;20021;-91
2023/02/20 11:36:13;;;;;;;14.13;4.93;;;8.90;99.90;;;;;;5056158;28;20036;-91
2023/02/20 11:41:38;;;;;;;9.38;4.60;;;8.90;99.90;;;;;;5082943;22;20058;-90
2023/02/20 11:44:33;;;;;;;15.02;5.07;;;10.30;99.90;;;;;;5058830;28;20375;-92
2023/02/20 11:47:42;;;;;;;18.15;5.53;;;9.00;99.90;;;;;;5056695;28;20096;-92
2023/02/20 11:50:13;;;;;;;13.35;4.53;;;8.00;99.90;;;;;;4976016;28;20043;-89
2023/02/20 11:53:06;;;;;;;;;;;9.00;99.90;;;;;;4990409;28;20464;-88
2023/02/20 11:55:35;;;;;;;9.52;4.00;;;9.10;99.90;;;;;;5050419;28;20003;-89
2023/02/20 11:58:18;;;;;;;13.20;4.90;;;9.50;99.90;;;;;;5056404;28;20033;-90
2023/02/20 12:00:47;;;;;;;23.80;5.13;;;9.10;99.90;;;;;;5060179;28;20029;-89
2023/02/20 12:03:42;;;;;;;25.33;4.90;;;9.60;99.90;;;;;;5065951;28;20025;-89
2023/02/20 12:06:41;;;;;;;16.60;4.78;;;9.00;99.90;;;;;;5056839;28;20029;-89
2023/02/20 12:09:13;;;;;;;14.93;5.15;;;9.20;99.90;;;;;;5053453;28;20028;-89
2023/02/20 12:11:39;;;;;;;9.15;4.15;;;9.60;99.90;;;;;;5058716;28;20104;-89
2023/02/20 12:14:13;;;;;;;26.23;5.65;;;10.60;99.90;;;;;;5059984;28;20088;-89
2023/02/20 12:16:48;;;;;;;10.93;3.83;;;9.70;99.90;;;;;;5059376;28;20033;-89
2023/02/20 12:22:44;;;;;;;15.73;4.57;;;9.00;99.90;;;;;;5107738;22;20055;-90
2023/02/20 12:25:51;;;;;;;12.80;5.05;;;9.50;99.90;;;;;;5073154;28;20035;-88
2023/02/20 12:28:21;;;;;;;11.55;4.57;;;9.00;99.90;;;;;;5057457;28;20111;-88
2023/02/20 12:31:16;;;;;;;10.65;4.68;;;9.00;99.90;;;;;;5066253;28;20723;-89
2023/02/20 12:34:31;;;;;;;12.15;4.70;;;8.60;99.90;;;;;;5064730;28;20025;-89
2023/02/20 12:37:17;;;;;;;14.95;4.45;;;9.00;99.90;;;;;;5068809;28;20128;-88
2023/02/20 12:39:45;;;;;;;8.43;4.45;;;9.70;99.90;;;;;;5069908;28;20040;-89
2023/02/20 12:42:20;;;;;;;14.80;4.55;;;9.20;99.90;;;;;;5071750;28;20051;-88
2023/02/20 12:44:48;;;;;;;10.18;4.70;;;9.70;99.90;;;;;;5072409;28;20039;-89
2023/02/20 12:47:42;;;;;;;13.15;6.68;;;9.00;99.90;;;;;;5071429;22;20050;-90
2023/02/20 12:50:49;;;;;;;13.48;4.80;;;9.00;99.90;;;;;;5049073;28;20027;-91
2023/02/20 12:53:48;;;;;;;12.85;4.90;;;8.80;99.90;;;;;;5053282;28;20021;-89
2023/02/20 12:56:20;;;;;;;13.93;5.38;;;9.10;99.90;;;;;;5053520;28;20029;-89
2023/02/20 12:58:56;;;;;;;16.80;5.07;;;9.10;99.90;;;;;;5055062;28;20037;-89
2023/02/20 13:01:22;;;;;;;17.02;5.05;;;9.70;99.90;;;;;;5054306;28;20032;-90
2023/02/20 13:04:08;;;;;;;13.57;4.93;;;9.50;99.90;;;;;;5054533;28;20021;-88
2023/02/20 13:06:49;;;;;;;19.40;5.68;;;9.00;99.90;;;;;;5055460;28;20191;-89
2023/02/20 13:09:25;;;;;;;16.73;5.70;;;9.30;99.90;;;;;;5053147;28;20071;-90
2023/02/20 13:11:57;;;;;;;12.00;5.00;;;9.10;99.90;;;;;;5056071;28;20036;-89
2023/02/20 13:14:28;;;;;;;13.15;5.28;;;9.60;99.90;;;;;;5065024;28;20476;-89
2023/02/20 13:17:24;;;;;;;12.07;5.65;;;9.00;99.90;;;;;;5049814;28;20032;-88
2023/02/20 13:20:12;;;;;;;17.88;5.10;;;9.10;99.90;;;;;;5049907;28;20043;-89
2023/02/20 13:23:00;;;;;;;10.60;5.20;;;9.50;99.90;;;;;;5053679;28;20017;-90
2023/02/20 13:25:41;;;;;;;16.10;4.82;;;9.00;99.90;;;;;;5053601;28;20082;-93
2023/02/20 13:28:41;;;;;;;11.80;4.63;;;9.70;99.90;;;;;;5022793;28;20417;-88
2023/02/20 13:31:46;;;;;;;12.07;4.85;;;9.00;99.90;;;;;;5053771;28;20407;-92
2023/02/20 13:36:47;;;;;;;11.85;4.63;;;9.10;99.90;;;;;;5068867;28;20053;-87
2023/02/20 13:39:32;;;;;;;16.67;5.43;;;9.30;99.90;;;;;;5066384;28;20033;-89
2023/02/20 13:42:46;;;;;;;11.25;5.63;;;9.00;99.90;;;;;;5067335;28;20021;-88
2023/02/20 13:46:11;;;;;;;14.75;5.18;;;9.00;99.90;;;;;;5064081;28;20036;-90
2023/02/20 13:48:39;;;;;;;14.25;4.85;;;9.00;99.90;;;;;;5066620;28;20029;-91
2023/02/20 13:51:14;;;;;;;14.27;4.85;;;9.40;99.90;;;;;;5066677;28;20029;-87
2023/02/20 13:53:42;;;;;;;14.88;5.32;;;9.70;99.90;;;;;;5060978;28;20077;-88
2023/02/20 13:56:37;;;;;;;11.65;5.50;;;9.60;99.90;;;;;;5060283;28;20044;-89
2023/02/20 13:59:17;;;;;;;8.75;4.35;;;9.00;99.90;;;;;;4984494;28;20121;-89
2023/02/20 14:02:22;;;;;;;17.52;6.00;;;8.90;99.90;;;;;;4981829;28;20026;-88
2023/02/20 14:05:07;;;;;;;17.60;6.18;;;8.90;99.90;;;;;;5094607;22;20035;-88
2023/02/20 14:07:43;;;;;;;18.50;5.72;;;9.70;99.90;;;;;;5067331;28;20055;-89
2023/02/20 14:10:40;;;;;;;15.25;6.32;;;9.50;99.90;;;;;;5072641;28;20028;-89
2023/02/20 14:13:16;;;;;;;9.73;5.55;;;8.90;99.90;;;;;;5072237;28;20361;-90
2023/02/20 14:15:48;;;;;;;9.50;5.18;;;9.00;99.90;;;;;;5072889;28;20038;-89
2023/02/20 14:18:37;;;;;;;10.55;5.43;;;9.00;99.90;;;;;;5074620;28;20036;-91
2023/02/20 14:21:17;;;;;;;10.27;5.40;;;9.00;99.90;;;;;;5054713;28;20033;-91
2023/02/20 14:23:52;;;;;;;13.25;6.07;;;9.00;99.90;;;;;;5059231;28;20476;-90
2023/02/20 14:26:20;;;;;;;7.25;5.35;;;9.40;99.90;;;;;;5055122;28;20112;-90
2023/02/20 14:28:55;;;;;;;12.70;5.88;;;9.30;99.90;;;;;;5058021;28;20068;-89
2023/02/20 14:31:52;;;;;;;9.40;5.07;;;8.50;99.90;;;;;;5059766;28;20060;-88
2023/02/20 14:34:44;;;;;;;18.98;5.88;;;9.10;99.90;;;;;;5040466;28;20102;-89
2023/02/20 14:37:37;;;;;;;7.43;4.88;;;9.00;99.90;;;;;;5059361;28;20037;-90
2023/02/20 14:40:50;;;;;;;8.85;5.30;;;9.00;99.90;;;;;;5067865;22;20059;-89
2023/02/20 14:43:28;;;;;;;8.27;4.40;;;9.00;99.90;;;;;;5057379;28;20029;-89
2023/02/20 14:46:06;;;;;;;8.43;5.35;;;9.30;99.90;;;;;;5061501;28;20033;-89
2023/02/20 14:48:39;;;;;;;10.05;4.57;;;9.60;99.90;;;;;;5067400;28;20060;-90
2023/02/20 14:54:22;;;;;;;10.35;5.65;;;9.00;99.90;;;;;;5047606;22;20063;-90